Time;durP1;ratioP1;P1;durP2;ratioP2;P2;SDS_P1;SDS_P2;PMS_P1;PMS_P2;Temp;Humidity;BMP_temperature;BMP_pressure;BME280_temperature;BME280_humidity;BME280_pressure;Samples;Min_cycle;Max_cycle;Signal;HPM_P1;HPM_P2
2021/06/20 00:01:49;;;;;;;7.93;6.57;;;25.00;54.80;;;24.10;52.97;95496.03;4953877;28;20122;-68
2021/06/20 00:04:16;;;;;;;12.25;7.43;;;25.00;55.40;;;24.07;53.33;95489.38;4965386;28;20142;-67
2021/06/20 00:06:47;;;;;;;9.20;7.25;;;24.90;55.30;;;24.05;54.05;95498.81;4967860;28;20038;-67
2021/06/20 00:09:13;;;;;;;9.38;7.22;;;24.90;55.30;;;23.98;53.58;95490.28;4954440;28;20031;-68
2021/06/20 00:11:45;;;;;;;8.38;7.28;;;24.80;55.50;;;23.95;54.16;95498.91;4951060;28;20042;-67
2021/06/20 00:14:11;;;;;;;8.20;7.30;;;24.80;55.20;;;23.91;53.91;95497.91;4956401;28;20047;-67
2021/06/20 00:16:38;;;;;;;8.05;7.07;;;24.70;55.40;;;23.87;53.95;95500.38;4947046;28;20034;-68
2021/06/20 00:19:04;;;;;;;9.07;7.45;;;24.70;56.20;;;23.83;54.41;95508.19;4941490;28;20094;-68
2021/06/20 00:21:30;;;;;;;10.02;7.53;;;24.60;56.50;;;23.78;54.34;95500.22;4956197;28;20035;-67
2021/06/20 00:23:56;;;;;;;10.13;8.05;;;24.60;57.00;;;23.75;54.07;95500.75;4952269;28;20039;-67
2021/06/20 00:26:21;;;;;;;10.18;7.68;;;24.60;56.60;;;23.72;54.53;95500.53;4933534;28;20035;-67
2021/06/20 00:28:47;;;;;;;8.93;7.18;;;24.50;57.10;;;23.71;54.67;95504.31;4959770;28;20121;-68
2021/06/20 00:31:14;;;;;;;9.27;7.40;;;24.50;57.50;;;23.63;55.24;95488.84;4969069;28;20039;-67
2021/06/20 00:33:40;;;;;;;10.68;7.60;;;24.40;57.60;;;23.57;55.55;95493.47;4966196;28;20026;-68
2021/06/20 00:36:06;;;;;;;7.88;7.00;;;24.40;58.20;;;23.51;56.00;95481.13;4976356;28;20424;-67
2021/06/20 00:38:32;;;;;;;11.05;8.20;;;24.30;58.50;;;23.45;55.71;95480.41;4971014;28;20031;-67
2021/06/20 00:40:58;;;;;;;8.65;7.68;;;24.30;58.60;;;23.43;56.49;95473.72;4939378;28;20062;-67
2021/06/20 00:43:23;;;;;;;8.23;7.43;;;24.20;59.10;;;23.38;56.25;95473.78;4965040;28;20041;-68
2021/06/20 00:45:49;;;;;;;9.68;7.68;;;24.20;59.40;;;23.37;56.51;95480.25;4961468;28;20039;-68
2021/06/20 00:48:15;;;;;;;9.48;8.05;;;24.20;59.50;;;23.34;57.48;95475.44;4975034;28;20047;-67
2021/06/20 00:50:41;;;;;;;10.23;8.52;;;24.20;59.10;;;23.29;56.93;95475.47;4972607;28;20490;-67
2021/06/20 00:53:06;;;;;;;17.00;15.07;;;24.20;59.40;;;23.21;57.01;95464.28;4971133;28;20039;-68
2021/06/20 00:55:34;;;;;;;31.83;28.45;;;24.10;59.40;;;23.19;57.25;95469.13;4972870;28;20605;-68
2021/06/20 00:58:03;;;;;;;22.65;20.35;;;24.10;59.50;;;23.18;58.09;95470.22;4935894;28;20053;-66
2021/06/20 01:00:28;;;;;;;12.30;9.95;;;24.10;59.70;;;23.19;57.12;95479.88;4955510;28;20050;-68
2021/06/20 01:02:54;;;;;;;10.23;8.63;;;24.10;59.40;;;23.19;57.34;95487.91;4960217;28;20451;-67
2021/06/20 01:05:20;;;;;;;10.15;8.60;;;24.10;59.50;;;23.20;57.29;95494.09;4953732;28;20039;-68
2021/06/20 01:07:50;;;;;;;10.27;9.20;;;24.10;59.50;;;23.14;58.07;95498.72;4939484;28;20035;-68
2021/06/20 01:10:16;;;;;;;;;;;24.00;59.80;;;23.10;58.36;95500.38;4942267;28;20066;-67
2021/06/20 01:12:42;;;;;;;10.30;8.50;;;23.90;60.00;;;23.04;57.05;95500.66;4948203;28;20358;-67
2021/06/20 01:15:09;;;;;;;10.07;7.85;;;23.90;60.40;;;22.99;58.04;95493.47;4943120;28;20035;-67
2021/06/20 01:17:34;;;;;;;10.48;8.75;;;23.80;60.70;;;22.96;57.98;95496.72;4952153;28;20039;-67
2021/06/20 01:20:00;;;;;;;9.27;8.23;;;23.90;60.70;;;22.95;58.23;95495.13;4959465;28;20031;-66
2021/06/20 01:22:28;;;;;;;9.52;8.27;;;23.90;61.00;;;22.95;58.57;95479.03;4965758;28;20577;-67
2021/06/20 01:25:08;;;;;;;10.48;8.55;;;23.80;60.80;;;22.88;59.90;95459.78;4979701;28;20039;-67
2021/06/20 01:27:46;;;;;;;9.35;8.45;;;23.80;61.30;;;22.79;59.65;95445.34;4956194;28;20040;-67
2021/06/20 01:30:18;;;;;;;9.73;8.73;;;23.70;61.20;;;22.72;59.34;95458.28;4951617;28;20118;-67
2021/06/20 01:32:44;;;;;;;10.55;9.32;;;23.70;61.30;;;22.72;58.96;95466.31;4993650;28;20403;-67
2021/06/20 01:35:11;;;;;;;10.73;9.63;;;23.60;61.20;;;22.67;58.70;95474.41;4969529;28;20050;-68
2021/06/20 01:37:37;;;;;;;10.38;9.38;;;23.60;60.80;;;22.62;59.29;95461.84;4952628;28;20039;-68
2021/06/20 01:40:08;;;;;;;9.38;8.48;;;23.60;61.50;;;22.61;59.94;95468.28;4969760;28;20049;-67
2021/06/20 01:42:34;;;;;;;10.55;9.43;;;23.60;61.40;;;22.58;58.97;95472.31;4956268;28;20122;-68
2021/06/20 01:45:00;;;;;;;12.35;9.15;;;23.50;61.10;;;22.56;58.65;95465.63;4971381;28;20101;-67
2021/06/20 01:47:26;;;;;;;11.45;8.88;;;23.50;61.20;;;22.50;59.65;95459.53;4926047;28;20443;-68
2021/06/20 01:49:59;;;;;;;10.23;9.13;;;23.50;61.50;;;22.46;59.55;95453.13;4974647;28;20039;-68
2021/06/20 01:52:25;;;;;;;10.30;9.30;;;23.40;61.80;;;22.37;60.02;95448.63;4970390;28;20457;-68
2021/06/20 01:54:52;;;;;;;10.80;9.70;;;23.30;62.20;;;22.27;60.10;95461.03;4968738;28;20533;-67
2021/06/20 01:57:32;;;;;;;10.20;9.05;;;23.30;62.70;;;22.22;61.81;95457.59;4960967;28;20125;-67
2021/06/20 02:00:00;;;;;;;11.63;9.93;;;23.10;62.90;;;22.18;60.83;95461.88;4971274;28;20035;-67
2021/06/20 02:02:27;;;;;;;12.05;10.48;;;23.10;63.10;;;22.10;60.73;95465.16;4938975;28;20092;-67
2021/06/20 02:04:55;;;;;;;14.27;10.98;;;23.10;63.10;;;22.04;60.60;95474.25;4952207;28;20035;-68
2021/06/20 02:07:24;;;;;;;11.13;10.02;;;23.10;63.20;;;22.04;60.92;95471.59;4964657;28;20033;-67
2021/06/20 02:09:50;;;;;;;13.65;10.23;;;23.10;63.10;;;22.06;61.29;95470.25;4954663;28;20090;-68
2021/06/20 02:12:16;;;;;;;10.23;9.10;;;23.10;63.50;;;22.02;61.23;95480.69;4957339;28;20035;-67
2021/06/20 02:14:42;;;;;;;12.63;9.93;;;23.00;63.70;;;22.01;61.05;95472.94;4952096;28;20391;-67
2021/06/20 02:17:22;;;;;;;10.50;9.40;;;23.00;64.00;;;21.99;62.57;95478.56;4963158;28;20514;-67
2021/06/20 02:19:49;;;;;;;9.90;8.93;;;23.00;64.30;;;21.98;61.14;95489.56;4965467;28;20047;-67
2021/06/20 02:22:15;;;;;;;11.40;9.95;;;22.90;64.10;;;21.94;61.61;95489.28;4978407;28;20034;-67
2021/06/20 02:24:40;;;;;;;10.55;9.25;;;22.80;64.00;;;21.89;61.25;95475.94;4985942;28;20121;-68
2021/06/20 02:27:09;;;;;;;12.65;9.38;;;22.80;64.70;;;21.83;61.78;95466.34;4963240;28;20047;-67
2021/06/20 02:29:36;;;;;;;14.32;9.95;;;22.80;64.40;;;21.86;61.72;95473.81;4944352;28;20115;-67
2021/06/20 02:32:03;;;;;;;13.85;9.93;;;22.80;64.60;;;21.84;62.08;95467.94;4969569;28;20039;-67
2021/06/20 02:34:28;;;;;;;11.30;9.73;;;22.80;64.50;;;21.81;61.62;95452.41;4961436;28;20037;-67
2021/06/20 02:36:54;;;;;;;11.18;10.07;;;22.80;64.20;;;21.82;62.03;95464.72;4952798;28;20035;-67
2021/06/20 02:39:20;;;;;;;11.30;10.00;;;22.80;64.10;;;21.83;61.86;95455.63;4964421;28;20550;-67
2021/06/20 02:41:49;;;;;;;11.32;9.93;;;22.80;64.00;;;21.85;61.52;95453.47;4964666;28;20043;-67
2021/06/20 02:44:16;;;;;;;11.17;9.40;;;22.80;64.20;;;21.83;62.14;95450.25;4969617;28;20055;-67
2021/06/20 02:46:41;;;;;;;11.57;10.00;;;22.80;64.40;;;21.85;61.99;95445.44;4965447;28;20066;-67
2021/06/20 02:49:07;;;;;;;11.57;10.38;;;22.80;64.30;;;21.85;62.45;95434.72;4930830;28;20042;-68
2021/06/20 02:51:33;;;;;;;15.00;11.02;;;22.80;64.40;;;21.79;62.09;95438.50;4942924;28;20032;-67
2021/06/20 02:53:59;;;;;;;13.27;10.95;;;22.70;64.10;;;21.78;61.52;95446.81;4956967;28;20035;-67
2021/06/20 02:56:24;;;;;;;13.55;10.68;;;22.70;64.10;;;21.79;62.08;95454.56;4961340;28;20506;-67
2021/06/20 02:58:50;;;;;;;13.57;10.75;;;22.80;64.00;;;21.80;61.83;95456.19;4953157;28;20050;-67
2021/06/20 03:01:16;;;;;;;13.02;10.68;;;22.70;64.30;;;21.79;62.11;95465.28;4966603;28;20039;-67
2021/06/20 03:03:41;;;;;;;13.27;11.18;;;22.70;64.50;;;21.75;62.47;95466.91;4940020;28;20058;-68
2021/06/20 03:06:07;;;;;;;13.02;11.73;;;22.70;64.30;;;21.71;62.32;95463.97;4978055;28;20134;-67
2021/06/20 03:08:33;;;;;;;12.25;10.98;;;22.70;64.00;;;21.68;62.22;95463.72;4994975;28;20081;-67
2021/06/20 03:10:59;;;;;;;13.73;10.93;;;22.70;64.80;;;21.62;62.80;95459.47;4957422;28;20108;-67
2021/06/20 03:13:24;;;;;;;15.32;11.80;;;22.60;64.80;;;21.62;62.36;95464.81;4969674;28;20454;-67
2021/06/20 03:15:50;;;;;;;13.98;11.98;;;22.60;65.00;;;21.59;62.66;95457.34;4970622;28;20046;-67
2021/06/20 03:18:16;;;;;;;14.48;11.77;;;22.60;64.80;;;21.58;62.27;95463.75;4961502;28;20058;-67
2021/06/20 03:20:42;;;;;;;14.40;12.45;;;22.60;64.80;;;21.54;62.66;95468.88;4946759;28;20427;-67
2021/06/20 03:23:10;;;;;;;14.45;11.35;;;22.60;64.90;;;21.50;62.62;95456.28;4968592;28;20078;-68
2021/06/20 03:25:38;;;;;;;14.05;12.20;;;22.60;65.20;;;21.49;63.27;95454.69;4952845;28;20038;-67
2021/06/20 03:28:04;;;;;;;15.52;12.05;;;22.60;65.00;;;21.51;63.29;95473.97;4948738;28;20042;-67
2021/06/20 03:30:29;;;;;;;14.18;12.48;;;22.60;65.10;;;21.51;63.22;95471.28;4973066;28;20043;-67
2021/06/20 03:32:55;;;;;;;16.00;12.80;;;22.60;65.20;;;21.50;63.29;95491.06;4965396;28;20134;-68
2021/06/20 03:35:21;;;;;;;13.43;12.00;;;22.60;65.20;;;21.50;63.48;95499.09;4949868;28;20051;-68
2021/06/20 03:37:46;;;;;;;17.52;11.90;;;22.60;65.40;;;21.49;63.29;95498.28;4952167;28;20039;-67
2021/06/20 03:40:13;;;;;;;15.00;12.73;;;22.50;65.60;;;21.49;63.60;95508.19;4948906;28;20126;-68
2021/06/20 03:42:39;;;;;;;14.23;12.15;;;22.50;65.70;;;21.45;63.30;95507.16;4971077;28;20046;-67
2021/06/20 03:45:08;;;;;;;14.20;11.75;;;22.40;66.10;;;21.40;63.97;95511.44;4951524;28;20121;-68
2021/06/20 03:47:34;;;;;;;14.30;11.77;;;22.40;66.20;;;21.38;64.03;95518.94;4949976;28;20042;-68
2021/06/20 03:50:00;;;;;;;13.02;11.73;;;22.40;66.20;;;21.34;63.58;95533.94;4953190;28;20047;-68
2021/06/20 03:52:25;;;;;;;13.73;10.82;;;22.30;66.50;;;21.29;64.51;95547.31;4945854;28;20568;-67
2021/06/20 03:54:52;;;;;;;10.77;9.52;;;22.20;67.40;;;21.25;65.22;95540.88;4945625;28;20130;-67
2021/06/20 03:57:19;;;;;;;12.82;10.98;;;22.30;67.70;;;21.22;65.07;95537.91;4943189;28;20184;-68
2021/06/20 03:59:46;;;;;;;12.15;10.95;;;22.20;67.80;;;21.20;64.98;95556.91;4945711;28;20069;-68
2021/06/20 04:02:12;;;;;;;14.00;10.75;;;22.10;68.10;;;21.17;65.54;95554.78;4967642;28;20103;-67
2021/06/20 04:04:40;;;;;;;12.40;10.55;;;22.10;68.30;;;21.13;65.89;95543.03;4961150;28;20479;-67
2021/06/20 04:07:07;;;;;;;11.63;10.38;;;22.10;68.20;;;21.12;65.83;95528.06;4953357;28;20097;-68
2021/06/20 04:09:32;;;;;;;12.73;11.32;;;22.10;68.40;;;21.07;66.63;95504.78;4942270;28;20035;-67
2021/06/20 04:11:58;;;;;;;13.02;11.70;;;22.10;68.40;;;21.10;65.31;95514.16;4954468;28;20055;-68
2021/06/20 04:14:24;;;;;;;11.82;10.63;;;22.30;67.90;;;21.17;65.67;95517.34;4972268;28;20463;-68
2021/06/20 04:16:49;;;;;;;13.55;11.50;;;22.30;67.70;;;21.23;65.21;95534.97;4972093;28;20526;-69
2021/06/20 04:19:15;;;;;;;14.40;11.23;;;22.40;67.80;;;21.29;65.24;95531.28;4960161;28;20070;-68
2021/06/20 04:21:41;;;;;;;12.00;10.68;;;22.50;67.60;;;21.36;65.34;95539.00;4963901;28;20063;-68
2021/06/20 04:24:07;;;;;;;14.13;11.05;;;22.60;67.50;;;21.39;65.36;95536.59;4936559;28;20090;-67
2021/06/20 04:26:33;;;;;;;13.35;10.93;;;22.60;67.30;;;21.46;65.12;95535.50;4960760;28;20094;-67
2021/06/20 04:28:59;;;;;;;13.52;11.40;;;22.70;66.50;;;21.55;65.24;95539.25;4956757;28;20040;-67
2021/06/20 04:31:25;;;;;;;13.48;11.57;;;22.90;66.40;;;21.64;65.15;95549.13;4952997;28;20039;-68
2021/06/20 04:33:50;;;;;;;13.35;11.70;;;22.90;66.00;;;21.73;64.92;95552.06;4950731;28;20038;-68
2021/06/20 04:36:16;;;;;;;14.18;12.68;;;23.00;66.10;;;21.79;64.58;95559.00;4948670;28;20039;-67
2021/06/20 04:38:43;;;;;;;14.25;12.18;;;23.10;65.30;;;21.86;64.60;95562.16;4937151;28;20034;-68
2021/06/20 04:41:12;;;;;;;13.55;12.13;;;23.10;65.40;;;21.93;64.52;95573.38;4945995;28;20140;-67
2021/06/20 04:46:36;;;;;;;14.68;11.77;;;23.10;65.80;;;22.04;65.19;95554.63;4983733;28;20089;-67
2021/06/20 04:49:07;;;;;;;12.15;10.88;;;23.10;65.70;;;22.05;65.26;95542.84;4969921;28;20511;-67
2021/06/20 04:51:38;;;;;;;12.73;11.43;;;23.30;65.40;;;22.04;64.74;95549.25;4984906;28;20122;-69
2021/06/20 04:54:04;;;;;;;13.15;11.70;;;23.20;65.40;;;22.07;64.85;95562.94;4963820;28;20121;-67
2021/06/20 04:56:30;;;;;;;13.52;11.25;;;23.30;65.40;;;22.07;64.76;95579.00;4960190;28;20518;-68
2021/06/20 04:58:56;;;;;;;13.45;12.00;;;23.20;65.20;;;22.11;64.37;95587.28;4947914;28;20046;-67
2021/06/20 05:01:22;;;;;;;13.25;11.95;;;23.30;65.10;;;22.15;64.43;95586.44;4929321;28;20113;-67
2021/06/20 05:03:48;;;;;;;18.00;12.15;;;23.40;64.90;;;22.20;64.65;95570.38;4940573;28;20121;-67
2021/06/20 05:06:14;;;;;;;15.18;11.82;;;23.50;64.80;;;22.28;64.10;95566.31;4955131;28;20035;-67
2021/06/20 05:08:40;;;;;;;13.50;12.10;;;23.60;64.60;;;22.35;63.70;95558.78;4939377;28;20031;-67
2021/06/20 05:11:06;;;;;;;14.43;11.85;;;23.60;64.20;;;22.44;63.75;95567.84;4964760;28;20031;-67
2021/06/20 05:13:32;;;;;;;12.77;11.57;;;23.80;64.00;;;22.54;63.93;95562.41;4947047;28;20114;-68
2021/06/20 05:15:58;;;;;;;14.45;12.00;;;24.00;63.70;;;22.66;63.67;95569.34;4971469;28;20027;-68
2021/06/20 05:18:24;;;;;;;12.82;11.30;;;24.10;63.70;;;22.77;64.25;95562.81;4962271;28;20054;-67
2021/06/20 05:20:49;;;;;;;11.70;10.50;;;24.20;63.70;;;22.86;63.56;95561.97;4971264;28;20027;-67
2021/06/20 05:23:15;;;;;;;11.80;10.63;;;24.30;63.10;;;22.97;63.47;95562.69;4960968;28;20113;-68
2021/06/20 05:25:41;;;;;;;13.43;10.88;;;24.40;62.70;;;23.11;63.09;95560.97;4948696;28;20058;-68
2021/06/20 05:28:07;;;;;;;12.35;10.93;;;24.70;62.70;;;23.27;63.16;95571.56;4969866;28;20047;-68
2021/06/20 05:30:32;;;;;;;12.40;10.95;;;24.80;62.10;;;23.39;63.08;95572.00;4979796;28;20105;-68
2021/06/20 05:32:58;;;;;;;12.43;11.07;;;24.90;61.60;;;23.53;62.29;95570.25;4943742;28;20483;-67
2021/06/20 05:35:24;;;;;;;13.48;11.88;;;25.00;61.10;;;23.61;62.30;95563.50;4958799;28;20077;-68
2021/06/20 05:37:50;;;;;;;13.13;11.80;;;25.00;60.50;;;23.67;61.79;95565.84;4936201;28;20126;-68
2021/06/20 05:40:15;;;;;;;18.17;11.18;;;25.10;60.70;;;23.76;61.54;95588.31;4970446;28;20125;-67
2021/06/20 05:42:41;;;;;;;15.50;11.32;;;25.10;60.60;;;23.82;61.34;95589.88;4966891;28;20114;-67
2021/06/20 05:45:07;;;;;;;15.30;11.82;;;25.20;60.70;;;23.90;61.70;95598.38;4953913;28;20146;-68
2021/06/20 05:47:33;;;;;;;19.25;11.80;;;25.40;60.60;;;23.95;61.98;95606.38;4968439;28;20035;-67
2021/06/20 05:49:59;;;;;;;16.08;11.32;;;25.20;60.20;;;24.01;60.93;95611.44;4935105;28;20039;-68
2021/06/20 05:52:25;;;;;;;12.75;11.32;;;25.40;60.50;;;24.10;61.65;95625.81;4966991;28;20061;-67
2021/06/20 05:54:51;;;;;;;13.38;11.35;;;25.50;60.00;;;24.19;60.54;95639.41;4966551;28;20130;-68
2021/06/20 05:57:20;;;;;;;13.10;11.27;;;25.60;59.60;;;24.29;60.33;95628.59;4932668;28;20051;-67
2021/06/20 05:59:46;;;;;;;13.57;11.80;;;25.70;59.50;;;24.38;60.62;95632.25;4932073;28;20063;-68
2021/06/20 06:02:12;;;;;;;17.95;12.05;;;25.80;58.70;;;24.41;59.89;95631.66;4947798;28;20089;-67
2021/06/20 06:04:38;;;;;;;16.73;11.60;;;25.60;59.00;;;24.42;59.89;95635.94;4949546;28;20118;-67
2021/06/20 06:07:04;;;;;;;15.25;11.45;;;25.50;59.30;;;24.41;59.43;95634.34;4986363;28;20039;-68
2021/06/20 06:09:30;;;;;;;12.82;11.10;;;25.40;59.60;;;24.38;59.77;95626.88;4958168;28;20035;-69
2021/06/20 06:11:56;;;;;;;14.65;11.50;;;25.40;59.80;;;24.34;59.34;95636.59;4950308;28;20134;-68
2021/06/20 06:14:23;;;;;;;15.85;12.32;;;25.30;60.00;;;24.29;59.43;95638.56;4952481;28;20046;-77
2021/06/20 06:16:49;;;;;;;13.93;11.18;;;25.20;60.30;;;24.23;60.18;95640.47;4962635;28;20035;-70
2021/06/20 06:19:16;;;;;;;16.20;12.20;;;25.20;60.50;;;24.17;59.85;95654.22;4957357;28;20537;-72
2021/06/20 06:21:42;;;;;;;12.90;11.25;;;25.10;60.80;;;24.12;60.14;95657.78;4962177;28;20036;-68
2021/06/20 06:24:08;;;;;;;14.10;11.63;;;25.10;61.10;;;24.05;60.16;95670.75;4945998;28;20097;-67
2021/06/20 06:26:34;;;;;;;15.25;11.85;;;25.00;61.70;;;24.00;60.30;95673.50;4949503;28;20159;-67
2021/06/20 06:28:59;;;;;;;13.57;11.20;;;24.90;62.10;;;23.92;60.75;95682.16;4976669;28;20038;-67
2021/06/20 06:31:25;;;;;;;12.75;11.43;;;24.80;62.50;;;23.86;60.58;95686.00;4966175;28;20101;-67
2021/06/20 06:33:51;;;;;;;13.00;10.63;;;24.80;62.30;;;23.79;61.40;95695.19;4957656;28;20040;-68
2021/06/20 06:36:17;;;;;;;12.88;10.75;;;24.80;62.70;;;23.75;61.42;95694.13;4942816;28;20062;-67
2021/06/20 06:38:42;;;;;;;17.02;11.82;;;24.70;63.10;;;23.72;61.21;95696.56;4961837;28;20035;-67
2021/06/20 06:41:08;;;;;;;14.18;11.35;;;24.60;63.30;;;23.67;62.03;95702.78;4949525;28;20034;-67
2021/06/20 06:43:34;;;;;;;13.32;11.73;;;24.70;63.30;;;23.64;61.47;95703.34;4942608;28;20047;-67
2021/06/20 06:46:00;;;;;;;13.68;11.93;;;24.60;63.30;;;23.60;61.88;95707.69;4950147;28;20415;-68
2021/06/20 06:48:26;;;;;;;12.88;10.82;;;24.50;63.20;;;23.53;61.71;95699.09;4949694;28;20043;-67
2021/06/20 06:50:52;;;;;;;19.15;10.95;;;24.40;63.50;;;23.50;61.27;95697.78;4965087;28;20051;-68
2021/06/20 06:53:18;;;;;;;13.50;11.10;;;24.50;63.30;;;23.48;61.84;95696.47;4935334;28;20102;-68
2021/06/20 06:55:43;;;;;;;14.38;10.90;;;24.50;62.90;;;23.47;61.63;95692.19;4950866;28;20039;-67
2021/06/20 06:58:09;;;;;;;11.95;10.32;;;24.50;62.80;;;23.46;61.91;95701.31;4933811;28;20039;-67
2021/06/20 07:00:35;;;;;;;11.75;10.55;;;24.40;63.20;;;23.46;61.57;95696.75;4970345;28;20045;-68
2021/06/20 07:03:01;;;;;;;17.17;13.05;;;24.50;63.00;;;23.45;61.45;95695.16;4945794;28;20051;-67
2021/06/20 07:05:27;;;;;;;16.73;14.25;;;24.40;62.90;;;23.45;61.42;95699.72;4951529;28;20037;-67
2021/06/20 07:07:54;;;;;;;17.50;11.73;;;24.50;62.60;;;23.44;62.22;95703.47;4948952;28;20119;-68
2021/06/20 07:10:19;;;;;;;16.02;11.25;;;24.50;63.00;;;23.44;61.87;95719.59;4952659;28;20026;-68
2021/06/20 07:12:45;;;;;;;13.90;11.52;;;24.50;63.20;;;23.42;61.74;95729.81;4963326;28;20043;-68
2021/06/20 07:15:12;;;;;;;15.20;11.23;;;24.40;63.20;;;23.43;61.91;95728.72;4949092;28;20455;-69
2021/06/20 07:17:37;;;;;;;10.80;9.35;;;24.50;62.70;;;23.41;61.78;95725.53;4950983;28;20094;-71
2021/06/20 07:20:10;;;;;;;19.20;14.90;;;24.50;63.00;;;23.44;62.08;95733.00;4965672;28;20534;-72
2021/06/20 07:22:36;;;;;;;25.92;15.85;;;24.60;62.60;;;23.45;61.81;95731.94;4949701;28;20121;-73
2021/06/20 07:25:02;;;;;;;17.27;9.63;;;24.50;63.00;;;23.45;61.97;95734.63;4964390;28;20043;-73
2021/06/20 07:27:28;;;;;;;18.58;9.00;;;24.50;63.00;;;23.46;61.97;95736.22;4950266;28;20259;-78
2021/06/20 07:29:54;;;;;;;18.52;9.32;;;24.60;63.10;;;23.47;62.22;95735.94;4950764;28;20145;-79
2021/06/20 07:32:20;;;;;;;19.60;11.20;;;24.60;62.90;;;23.51;62.13;95741.53;4933718;28;20031;-69
2021/06/20 07:34:46;;;;;;;18.83;9.30;;;24.60;62.80;;;23.54;62.05;95743.69;4936629;28;20426;-73
2021/06/20 07:37:12;;;;;;;18.02;10.27;;;24.70;62.50;;;23.56;61.71;95738.88;4963935;28;20036;-67
2021/06/20 07:39:38;;;;;;;19.17;8.63;;;24.70;62.40;;;23.56;61.99;95730.81;4973486;28;20046;-72
2021/06/20 07:42:04;;;;;;;16.48;8.35;;;24.60;62.50;;;23.59;62.02;95730.25;4965989;28;20043;-69
2021/06/20 07:44:30;;;;;;;19.15;8.20;;;24.80;62.50;;;23.65;61.91;95721.06;4961936;28;20050;-72
2021/06/20 07:46:56;;;;;;;14.02;8.05;;;25.00;62.20;;;23.73;61.80;95723.16;4945113;28;20063;-71
2021/06/20 07:49:21;;;;;;;18.75;10.18;;;25.10;61.80;;;23.79;62.01;95732.78;4972857;28;20094;-72
2021/06/20 07:51:47;;;;;;;17.52;8.18;;;25.10;61.60;;;23.87;62.07;95727.88;4936533;28;20100;-74
2021/06/20 07:54:13;;;;;;;14.38;9.07;;;25.30;60.90;;;23.96;61.89;95728.88;4952593;28;20047;-73
2021/06/20 07:56:39;;;;;;;16.15;8.43;;;25.40;61.10;;;24.03;61.15;95734.72;4955955;28;20076;-72
2021/06/20 07:59:05;;;;;;;17.33;7.85;;;25.50;60.90;;;24.16;61.02;95739.44;4979160;28;20086;-70
2021/06/20 08:01:31;;;;;;;16.20;8.63;;;25.70;60.20;;;24.27;61.07;95751.69;4952901;28;20084;-71
2021/06/20 08:03:57;;;;;;;22.05;9.35;;;25.90;60.20;;;24.40;60.67;95751.03;4954179;28;20035;-69
2021/06/20 08:06:24;;;;;;;16.27;9.50;;;26.00;59.60;;;24.51;60.67;95767.09;4951712;28;20046;-73
2021/06/20 08:08:55;;;;;;;14.60;8.63;;;26.00;59.60;;;24.58;60.53;95764.84;4962890;28;20480;-72
2021/06/20 08:11:24;;;;;;;17.80;8.05;;;26.00;59.60;;;24.60;60.37;95762.66;4956700;28;20038;-70
2021/06/20 08:13:50;;;;;;;13.75;7.97;;;25.90;59.20;;;24.67;60.18;95757.78;4966859;28;20030;-70
2021/06/20 08:16:17;;;;;;;12.75;7.38;;;26.10;58.80;;;24.72;60.07;95765.78;4935665;28;20046;-73
2021/06/20 08:18:43;;;;;;;16.45;8.57;;;26.10;58.90;;;24.77;59.73;95762.22;4967354;28;20498;-71
2021/06/20 08:21:09;;;;;;;18.85;10.70;;;26.10;58.80;;;24.90;59.35;95778.47;4953397;28;20067;-71
2021/06/20 08:23:34;;;;;;;15.60;7.75;;;26.40;58.30;;;25.03;59.48;95768.91;4958216;28;20058;-70
2021/06/20 08:26:00;;;;;;;17.58;7.80;;;26.60;58.00;;;25.23;59.10;95765.16;4950041;28;20566;-72
2021/06/20 08:28:26;;;;;;;19.08;8.27;;;27.00;56.80;;;25.43;59.16;95764.88;4934253;28;20040;-69
2021/06/20 08:30:51;;;;;;;13.60;7.78;;;27.30;55.90;;;25.66;58.74;95763.22;4964613;28;20415;-66
2021/06/20 08:33:17;;;;;;;11.45;7.18;;;27.60;55.10;;;25.99;58.35;95761.34;4970053;28;20686;-70
2021/06/20 08:35:43;;;;;;;16.80;7.80;;;28.20;54.70;;;26.31;58.08;95751.66;4968947;28;20039;-65
2021/06/20 08:38:09;;;;;;;13.50;7.30;;;28.60;52.90;;;26.63;57.39;95754.31;4951681;28;20562;-67
2021/06/20 08:40:34;;;;;;;17.67;7.53;;;29.00;52.20;;;26.96;56.58;95756.94;4932956;28;20452;-68
2021/06/20 08:43:00;;;;;;;17.00;6.63;;;29.20;50.20;;;27.27;55.78;95755.19;4942354;28;20042;-71
2021/06/20 08:45:26;;;;;;;16.67;6.60;;;29.60;50.00;;;27.60;54.53;95744.19;4955377;28;20035;-71
2021/06/20 08:47:52;;;;;;;20.02;7.38;;;30.10;48.20;;;27.90;54.16;95754.34;4951504;28;20038;-71
2021/06/20 08:50:17;;;;;;;16.63;6.50;;;30.50;47.10;;;28.23;53.22;95751.34;4933043;28;20411;-72
2021/06/20 08:52:44;;;;;;;16.60;6.22;;;30.70;46.40;;;28.56;52.39;95752.69;4959791;28;20043;-72
2021/06/20 08:55:12;;;;;;;18.38;6.13;;;31.10;45.00;;;28.85;51.72;95754.88;4938486;28;20499;-73
2021/06/20 08:57:40;;;;;;;14.02;5.78;;;31.30;44.50;;;29.07;49.95;95755.91;4972922;28;20042;-70
2021/06/20 09:00:09;;;;;;;16.15;6.80;;;31.50;43.10;;;29.33;48.95;95756.75;4955413;28;20041;-72
2021/06/20 09:02:35;;;;;;;24.57;6.27;;;31.80;43.10;;;29.54;49.51;95757.75;4950247;28;20039;-70
2021/06/20 09:05:04;;;;;;;18.77;5.75;;;31.80;43.00;;;29.63;47.58;95765.88;4951299;28;20566;-70
2021/06/20 09:07:36;;;;;;;16.00;5.40;;;31.60;42.20;;;29.82;46.85;95754.72;4973743;28;20539;-74
2021/06/20 09:10:21;;;;;;;20.23;6.03;;;32.10;42.00;;;30.07;45.79;95758.53;4962685;28;20129;-67
2021/06/20 09:12:58;;;;;;;16.02;6.35;;;32.30;41.10;;;30.15;44.90;95739.56;4950989;28;20039;-69
2021/06/20 09:15:27;;;;;;;21.67;10.60;;;32.30;40.40;;;30.25;46.49;95737.59;4951991;28;20035;-69
2021/06/20 09:17:57;;;;;;;27.30;14.40;;;32.50;41.50;;;30.36;45.70;95736.94;4939291;28;20035;-69
2021/06/20 09:20:35;;;;;;;17.63;6.07;;;32.60;41.10;;;30.53;44.11;95732.56;4956653;28;20039;-70
2021/06/20 09:23:08;;;;;;;15.30;5.35;;;32.90;39.20;;;30.64;43.63;95728.41;4952326;28;20062;-69
2021/06/20 09:25:34;;;;;;;17.98;5.93;;;32.90;38.90;;;30.81;45.59;95722.91;4967913;28;20038;-70
2021/06/20 09:28:01;;;;;;;24.63;6.15;;;33.40;38.80;;;31.06;44.69;95713.81;4955468;28;20039;-69
2021/06/20 09:30:31;;;;;;;17.52;5.40;;;33.80;38.40;;;31.28;43.70;95715.47;4966887;28;20054;-67
2021/06/20 09:33:05;;;;;;;16.65;5.47;;;33.90;38.00;;;31.47;41.57;95701.41;4971309;28;20050;-68
2021/06/20 09:35:52;;;;;;;15.70;5.55;;;33.80;36.60;;;31.61;40.89;95699.19;4967698;28;20039;-68
2021/06/20 09:38:26;;;;;;;21.20;5.68;;;34.00;36.50;;;31.76;41.83;95697.03;4967850;28;20044;-68
2021/06/20 09:41:13;;;;;;;20.38;5.55;;;34.10;37.00;;;31.85;42.29;95695.00;4966462;28;20069;-68
2021/06/20 09:43:50;;;;;;;18.42;5.63;;;34.30;36.30;;;31.97;40.81;95700.50;4984224;28;20549;-67
2021/06/20 09:46:16;;;;;;;15.38;5.20;;;34.40;36.20;;;32.11;42.71;95687.38;4978230;28;20039;-68
2021/06/20 09:48:42;;;;;;;20.35;5.38;;;34.60;36.90;;;32.21;42.03;95692.41;4936531;28;20039;-69
2021/06/20 09:51:22;;;;;;;19.13;5.85;;;34.40;36.50;;;32.30;40.27;95686.88;4968504;28;20149;-68
2021/06/20 09:53:50;;;;;;;14.43;5.15;;;34.50;37.20;;;32.37;41.82;95683.63;4936353;28;20046;-69
2021/06/20 09:56:19;;;;;;;16.70;5.45;;;34.70;36.30;;;32.52;41.44;95675.56;4964519;28;20129;-68
2021/06/20 09:58:54;;;;;;;15.30;5.15;;;35.10;36.70;;;32.76;41.56;95682.94;4972829;28;20035;-68
2021/06/20 10:01:20;;;;;;;19.52;5.05;;;35.50;35.90;;;32.90;40.45;95685.34;4941523;28;20032;-69
2021/06/20 10:03:46;;;;;;;17.85;5.93;;;35.30;34.30;;;32.89;39.88;95687.28;4972088;28;20093;-69
2021/06/20 10:06:13;;;;;;;14.50;5.30;;;35.10;34.40;;;32.75;40.05;95684.06;4985742;28;20042;-67
2021/06/20 10:08:39;;;;;;;21.02;5.95;;;34.90;35.00;;;32.71;40.55;95691.34;4970846;28;20030;-68
2021/06/20 10:11:05;;;;;;;15.88;5.38;;;34.70;35.80;;;32.68;40.51;95689.31;4967380;28;20039;-67
2021/06/20 10:13:31;;;;;;;17.75;5.45;;;34.60;35.50;;;32.66;40.25;95686.13;4967526;28;20098;-68